createdAt,value
2022-10-09T00:02:48.090Z,0
2022-10-09T00:07:55.037Z,0
2022-10-09T00:13:06.912Z,0
2022-10-09T00:18:25.161Z,0
2022-10-09T00:23:41.802Z,0
2022-10-09T00:28:59.404Z,0
2022-10-09T00:34:15.565Z,0
2022-10-09T00:39:32.831Z,0
2022-10-09T00:44:49.208Z,0
2022-10-09T00:50:06.606Z,0
2022-10-09T00:54:33.967Z,0
2022-10-09T00:59:27.515Z,0
2022-10-09T01:04:36.638Z,0
2022-10-09T01:09:46.461Z,0
2022-10-09T01:14:54.872Z,0
2022-10-09T01:20:03.354Z,0
2022-10-09T01:25:13.150Z,0
2022-10-09T01:30:22.873Z,0
2022-10-09T01:35:31.357Z,0
2022-10-09T01:40:40.474Z,0
2022-10-09T01:45:49.597Z,0
2022-10-09T01:50:58.715Z,0
2022-10-09T01:56:09.759Z,0
2022-10-09T02:01:19.685Z,0
2022-10-09T02:06:27.998Z,0
2022-10-09T02:11:37.117Z,0
2022-10-09T02:16:47.757Z,0
2022-10-09T02:22:03.897Z,0
2022-10-09T02:27:19.417Z,0
2022-10-09T02:32:34.368Z,0
2022-10-09T02:37:50.458Z,0
2022-10-09T02:43:06.631Z,0
2022-10-09T02:48:20.856Z,0
2022-10-09T02:53:36.377Z,0
2022-10-09T02:58:51.897Z,0
2022-10-09T03:04:08.079Z,0
2022-10-09T03:08:32.327Z,0
2022-10-09T03:13:25.919Z,0
2022-10-09T03:18:34.403Z,0
2022-10-09T03:23:42.948Z,0
2022-10-09T03:28:50.944Z,0
2022-10-09T03:33:59.838Z,0
2022-10-09T03:39:08.958Z,0
2022-10-09T03:44:20.826Z,0
2022-10-09T03:49:37.153Z,0
2022-10-09T03:54:54.613Z,0
2022-10-09T04:00:12.042Z,0
2022-10-09T04:05:28.045Z,0
2022-10-09T04:10:44.365Z,0
2022-10-09T04:16:01.923Z,0
2022-10-09T04:20:23.836Z,0
2022-10-09T04:25:33.595Z,0
2022-10-09T04:30:43.357Z,0
2022-10-09T04:35:52.474Z,0
2022-10-09T04:41:02.238Z,0
2022-10-09T04:46:11.772Z,0
2022-10-09T04:51:20.481Z,0
2022-10-09T04:56:29.608Z,0
2022-10-09T05:01:39.046Z,0
2022-10-09T05:06:48.477Z,0
2022-10-09T05:11:59.894Z,0
2022-10-09T05:22:32.247Z,2
2022-10-09T05:27:48.378Z,7
2022-10-09T05:38:19.446Z,21
2022-10-09T05:43:34.937Z,31
2022-10-09T05:48:51.122Z,43
2022-10-09T05:54:07.299Z,66
2022-10-09T05:59:22.767Z,92
2022-10-09T06:03:47.720Z,119
2022-10-09T06:08:39.851Z,148
2022-10-09T06:13:50.172Z,179
2022-10-09T06:18:59.993Z,210
2022-10-09T06:24:09.759Z,230
2022-10-09T06:29:20.181Z,256
2022-10-09T06:34:31.440Z,296
2022-10-09T06:39:45.654Z,312
2022-10-09T06:45:01.825Z,321
2022-10-09T06:50:16.076Z,329
2022-10-09T06:55:31.574Z,398
2022-10-09T07:00:47.762Z,393
2022-10-09T07:06:03.254Z,430
2022-10-09T07:11:18.176Z,473
2022-10-09T07:16:35.182Z,469
2022-10-09T07:21:51.737Z,503
2022-10-09T07:27:07.898Z,480
2022-10-09T07:31:33.756Z,538
2022-10-09T07:36:23.951Z,639
2022-10-09T07:41:33.594Z,612
2022-10-09T07:46:43.074Z,619
2022-10-09T07:51:52.474Z,579
2022-10-09T07:57:00.956Z,597
2022-10-09T08:02:10.980Z,602
2022-10-09T08:07:19.194Z,613
2022-10-09T08:12:27.670Z,652
2022-10-09T08:17:36.156Z,671
2022-10-09T08:22:46.795Z,681
2022-10-09T08:27:55.675Z,701
2022-10-09T08:33:04.153Z,730
2022-10-09T08:38:48.506Z,745
2022-10-09T08:43:22.431Z,755
2022-10-09T08:48:32.162Z,774
2022-10-09T08:53:40.643Z,800
2022-10-09T08:58:54.080Z,799
2022-10-09T09:04:10.618Z,799
2022-10-09T09:09:27.404Z,804
2022-10-09T09:14:44.354Z,796
2022-10-09T09:20:00.356Z,795
2022-10-09T09:25:17.804Z,780
2022-10-09T09:30:33.425Z,790
2022-10-09T09:35:50.279Z,792
2022-10-09T09:40:57.951Z,788
2022-10-09T09:45:33.879Z,783
2022-10-09T09:51:27.828Z,774
2022-10-09T09:55:35.181Z,759
2022-10-09T10:00:43.858Z,752
2022-10-09T10:05:53.435Z,752
2022-10-09T10:11:06.403Z,741
2022-10-09T10:16:16.464Z,736
2022-10-09T10:21:29.141Z,727
2022-10-09T10:26:36.971Z,722
2022-10-09T10:31:49.289Z,714
2022-10-09T10:37:03.771Z,712
2022-10-09T10:42:06.874Z,700
2022-10-09T10:47:16.636Z,696
2022-10-09T10:52:25.116Z,688
2022-10-09T10:57:37.439Z,679
2022-10-09T11:02:45.489Z,672
2022-10-09T11:08:00.472Z,661
2022-10-09T11:13:04.571Z,650
2022-10-09T11:18:27.995Z,653
2022-10-09T11:23:40.331Z,644
2022-10-09T11:28:52.829Z,637
2022-10-09T11:34:01.121Z,634
2022-10-09T11:39:12.669Z,637
2022-10-09T11:44:28.684Z,615
2022-10-09T11:49:45.003Z,619
2022-10-09T11:55:03.848Z,606
2022-10-09T12:00:19.892Z,598
2022-10-09T12:10:54.762Z,577
2022-10-09T12:21:27.603Z,557
2022-10-09T12:26:43.401Z,550
2022-10-09T12:37:16.036Z,528
2022-10-09T12:42:32.208Z,514
2022-10-09T12:47:48.442Z,508
2022-10-09T12:53:07.084Z,499
2022-10-09T12:58:24.036Z,477
2022-10-09T13:03:39.390Z,473
2022-10-09T13:08:56.358Z,457
2022-10-09T13:14:13.803Z,444
2022-10-09T13:24:46.120Z,415
2022-10-09T13:30:04.035Z,398
2022-10-09T13:35:22.281Z,385
2022-10-09T13:40:39.186Z,370
2022-10-09T13:45:55.317Z,357
2022-10-09T13:51:14.709Z,348
2022-10-09T13:56:31.401Z,336
2022-10-09T13:59:17.450Z,324
2022-10-09T14:04:08.481Z,317
2022-10-09T14:09:18.240Z,302
2022-10-09T14:14:27.354Z,291
2022-10-09T14:19:36.490Z,279
2022-10-09T14:24:46.235Z,269
2022-10-09T14:29:57.518Z,260
2022-10-09T14:35:04.478Z,253
2022-10-09T14:40:12.957Z,245
2022-10-09T14:45:22.737Z,232
2022-10-09T14:50:31.841Z,229
2022-10-09T14:55:41.598Z,223
2022-10-09T15:00:50.714Z,217
2022-10-09T15:06:01.116Z,210
2022-10-09T15:11:09.624Z,205
2022-10-09T15:16:18.058Z,198
2022-10-09T15:21:26.579Z,193
2022-10-09T15:26:36.080Z,186
2022-10-09T15:31:44.150Z,181
2022-10-09T15:36:53.973Z,176
2022-10-09T15:42:02.402Z,166
2022-10-09T15:47:50.308Z,153
2022-10-09T15:52:20.312Z,155
2022-10-09T15:57:29.993Z,144
2022-10-09T16:02:40.792Z,135
2022-10-09T16:07:57.346Z,118
2022-10-09T16:13:14.138Z,115
2022-10-09T16:18:30.482Z,102
2022-10-09T16:23:16.655Z,93
2022-10-09T16:34:15.578Z,67
2022-10-09T16:39:30.456Z,55
2022-10-09T16:50:02.132Z,30
2022-10-09T17:00:35.193Z,8
2022-10-09T17:11:06.317Z,1
2022-10-09T17:16:21.044Z,0
2022-10-09T17:21:37.176Z,0
2022-10-09T17:26:52.684Z,0
2022-10-09T17:31:18.249Z,0
2022-10-09T17:35:43.099Z,0
2022-10-09T17:41:02.293Z,0
2022-10-09T17:46:14.135Z,0
2022-10-09T17:51:30.297Z,0
2022-10-09T17:56:45.210Z,0
2022-10-09T18:02:01.376Z,0
2022-10-09T18:07:15.612Z,0
2022-10-09T18:12:31.102Z,0
2022-10-09T18:16:56.620Z,0
2022-10-09T18:21:45.105Z,0
2022-10-09T18:26:55.520Z,0
2022-10-09T18:32:04.638Z,0
2022-10-09T18:37:12.474Z,0
2022-10-09T18:42:22.238Z,0
2022-10-09T18:47:30.722Z,0
2022-10-09T18:52:40.477Z,0
2022-10-09T18:57:48.962Z,0
2022-10-09T19:02:58.075Z,0
2022-10-09T19:08:07.868Z,0
2022-10-09T19:13:18.237Z,0
2022-10-09T19:18:27.383Z,0
2022-10-09T19:23:35.834Z,0
2022-10-09T19:28:45.137Z,0
2022-10-09T19:33:55.356Z,0
2022-10-09T19:39:04.478Z,0
2022-10-09T19:44:14.878Z,0
2022-10-09T19:49:24.634Z,0
2022-10-09T19:54:33.757Z,0
2022-10-09T19:59:43.524Z,0
2022-10-09T20:04:51.993Z,0
2022-10-09T20:10:01.754Z,0
2022-10-09T20:15:14.272Z,0
2022-10-09T20:20:29.794Z,0
2022-10-09T20:25:46.597Z,0
2022-10-09T20:31:04.202Z,0
2022-10-09T20:36:22.921Z,0
2022-10-09T20:41:39.563Z,0
2022-10-09T20:46:56.512Z,0
2022-10-09T20:52:13.797Z,0
2022-10-09T20:56:40.599Z,0
2022-10-09T21:01:35.074Z,0
2022-10-09T21:06:44.703Z,0
2022-10-09T21:11:53.118Z,0
2022-10-09T21:17:02.880Z,0
2022-10-09T21:22:11.387Z,0
2022-10-09T21:27:21.113Z,0
2022-10-09T21:32:29.589Z,0
2022-10-09T21:37:38.723Z,0
2022-10-09T21:42:47.796Z,0
2022-10-09T21:48:02.930Z,0
2022-10-09T21:53:19.096Z,0
2022-10-09T21:58:35.291Z,0
2022-10-09T22:03:50.138Z,0
2022-10-09T22:09:06.316Z,0
2022-10-09T22:14:22.494Z,0
2022-10-09T22:19:38.618Z,0
2022-10-09T22:24:53.497Z,0
2022-10-09T22:30:09.017Z,0
2022-10-09T22:34:35.818Z,0
2022-10-09T22:39:27.517Z,0
2022-10-09T22:44:37.327Z,0
2022-10-09T22:49:45.755Z,0
2022-10-09T22:54:55.667Z,0
2022-10-09T23:00:03.360Z,0
2022-10-09T23:05:11.840Z,0
2022-10-09T23:10:21.594Z,0
2022-10-09T23:15:30.745Z,0
2022-10-09T23:20:40.476Z,0
2022-10-09T23:25:50.265Z,0
2022-10-09T23:30:59.391Z,0
2022-10-09T23:36:07.866Z,0
2022-10-09T23:41:17.593Z,0
2022-10-09T23:46:33.641Z,0
2022-10-09T23:51:49.555Z,0
2022-10-09T23:57:06.989Z,0
